createdAt,value
2022-08-14T00:00:13.855Z,36.10
2022-08-14T00:00:50.681Z,36.34
2022-08-14T00:01:27.943Z,36.14
2022-08-14T00:02:06.723Z,35.97
2022-08-14T00:02:44.241Z,36.00
2022-08-14T00:03:21.961Z,35.98
2022-08-14T00:04:34.272Z,36.15
2022-08-14T00:05:02.510Z,36.32
2022-08-14T00:05:39.692Z,36.29
2022-08-14T00:06:27.732Z,36.47
2022-08-14T00:07:06.922Z,36.49
2022-08-14T00:07:44.220Z,36.46
2022-08-14T00:08:43.728Z,36.37
2022-08-14T00:09:27.343Z,36.04
2022-08-14T00:10:49.906Z,36.14
2022-08-14T00:11:07.695Z,36.29
2022-08-14T00:11:44.997Z,36.25
2022-08-14T00:12:23.727Z,36.52
2022-08-14T00:13:07.094Z,36.63
2022-08-14T00:13:52.985Z,36.10
2022-08-14T00:14:40.397Z,36.49
2022-08-14T00:15:21.759Z,36.12
2022-08-14T00:16:00.028Z,36.26
2022-08-14T00:16:41.106Z,36.23
2022-08-14T00:17:23.672Z,36.21
2022-08-14T00:18:06.752Z,36.46
2022-08-14T00:19:06.261Z,36.70
2022-08-14T00:20:11.983Z,37.19
2022-08-14T00:21:28.244Z,37.03
2022-08-14T00:22:56.207Z,36.81
2022-08-14T00:23:32.405Z,36.89
2022-08-14T00:24:29.001Z,36.64
2022-08-14T00:25:23.566Z,36.99
2022-08-14T00:28:41.846Z,36.76
2022-08-14T00:29:27.829Z,36.62
2022-08-14T00:30:17.433Z,36.90
2022-08-14T00:31:03.362Z,36.73
2022-08-14T00:31:56.261Z,36.87
2022-08-14T00:33:06.113Z,36.47
2022-08-14T00:33:59.072Z,36.45
2022-08-14T00:35:09.899Z,37.07
2022-08-14T00:36:36.866Z,36.65
2022-08-14T00:38:27.062Z,36.66
2022-08-14T00:39:14.262Z,37.05
2022-08-14T00:40:18.818Z,36.98
2022-08-14T00:41:10.834Z,37.15
2022-08-14T00:42:02.847Z,36.47
2022-08-14T00:42:58.468Z,36.86
2022-08-14T00:43:56.260Z,36.85
2022-08-14T00:46:05.151Z,36.66
2022-08-14T00:49:14.486Z,37.23
2022-08-14T00:50:05.533Z,36.78
2022-08-14T00:50:51.311Z,36.88
2022-08-14T00:51:38.910Z,37.01
2022-08-14T00:52:28.881Z,36.89
2022-08-14T00:53:16.326Z,37.35
2022-08-14T00:54:02.914Z,37.26
2022-08-14T00:54:50.767Z,36.99
2022-08-14T00:55:38.918Z,37.79
2022-08-14T00:56:25.355Z,37.44
2022-08-14T00:57:23.679Z,37.60
2022-08-14T00:58:11.553Z,37.66
2022-08-14T00:58:56.423Z,36.95
2022-08-14T00:59:44.555Z,37.17
2022-08-14T01:00:37.085Z,36.80
2022-08-14T01:01:34.501Z,36.64
2022-08-14T01:02:31.838Z,36.79
2022-08-14T01:05:20.418Z,37.23
2022-08-14T01:06:10.530Z,36.73
2022-08-14T01:06:57.869Z,37.01
2022-08-14T01:07:56.901Z,36.79
2022-08-14T01:08:59.336Z,36.99
2022-08-14T01:09:45.572Z,36.87
2022-08-14T01:10:38.270Z,37.05
2022-08-14T01:11:24.778Z,36.81
2022-08-14T01:12:26.253Z,36.89
2022-08-14T01:14:33.196Z,37.05
2022-08-14T01:15:58.676Z,37.06
2022-08-14T01:16:53.049Z,36.67
2022-08-14T01:17:44.042Z,37.10
2022-08-14T01:18:40.173Z,36.64
2022-08-14T01:19:25.920Z,36.64
2022-08-14T01:20:27.494Z,37.03
2022-08-14T01:21:20.151Z,36.79
2022-08-14T01:22:13.200Z,36.88
2022-08-14T01:23:16.156Z,36.75
2022-08-14T01:27:19.924Z,37.13
2022-08-14T01:28:46.424Z,36.72
2022-08-14T01:29:58.679Z,36.77
2022-08-14T01:30:34.283Z,37.27
2022-08-14T01:31:25.403Z,37.05
2022-08-14T01:33:59.219Z,36.89
2022-08-14T01:35:17.358Z,37.21
2022-08-14T01:36:05.433Z,37.27
2022-08-14T01:37:00.203Z,36.57
2022-08-14T01:37:56.555Z,36.90
2022-08-14T01:38:48.956Z,36.45
2022-08-14T01:39:40.082Z,36.90
2022-08-14T01:40:36.443Z,36.42
2022-08-14T01:43:56.394Z,37.18
2022-08-14T01:45:57.670Z,37.82
2022-08-14T01:47:00.994Z,37.16
2022-08-14T01:47:51.722Z,37.22
2022-08-14T01:49:01.670Z,37.64
2022-08-14T01:50:02.010Z,37.44
2022-08-14T01:52:08.952Z,37.39
2022-08-14T01:53:12.318Z,37.01
2022-08-14T01:54:08.079Z,37.62
2022-08-14T01:54:58.020Z,38.41
2022-08-14T01:57:02.249Z,38.40
2022-08-14T01:58:01.351Z,38.34
2022-08-14T01:58:59.535Z,37.88
2022-08-14T01:59:45.493Z,37.92
2022-08-14T02:00:36.025Z,37.66
2022-08-14T02:01:19.042Z,37.65
2022-08-14T02:02:02.156Z,37.57
2022-08-14T02:02:46.736Z,37.47
2022-08-14T02:06:33.315Z,37.17
2022-08-14T02:08:08.565Z,37.76
2022-08-14T06:13:24.535Z,39.67
2022-08-14T06:14:03.592Z,39.89
2022-08-14T06:14:35.501Z,39.67
2022-08-14T06:15:08.319Z,40.10
2022-08-14T06:15:40.476Z,39.74
2022-08-14T06:16:12.022Z,39.89
2022-08-14T06:16:43.541Z,40.16
2022-08-14T06:17:25.899Z,40.19
2022-08-14T06:17:59.012Z,40.08
2022-08-14T06:18:32.283Z,39.84
2022-08-14T06:19:03.800Z,40.22
2022-08-14T06:19:36.556Z,40.38
2022-08-14T06:20:10.365Z,40.18
2022-08-14T06:20:41.918Z,40.09
2022-08-14T06:21:13.702Z,40.08
2022-08-14T06:21:45.209Z,40.11
2022-08-14T06:22:17.841Z,40.54
2022-08-14T06:22:50.893Z,40.51
2022-08-14T06:23:22.841Z,40.50
2022-08-14T06:23:54.276Z,40.19
2022-08-14T06:24:26.079Z,40.45
2022-08-14T06:24:57.678Z,39.97
2022-08-14T06:25:29.092Z,39.97
2022-08-14T06:26:00.840Z,40.15
2022-08-14T06:27:35.174Z,40.00
2022-08-14T06:28:32.019Z,40.27
2022-08-14T06:29:32.207Z,40.04
2022-08-14T06:30:46.302Z,39.79
2022-08-14T06:35:10.329Z,40.42
2022-08-14T06:35:54.065Z,40.73
2022-08-14T06:36:51.785Z,40.85
2022-08-14T06:49:11.210Z,40.40
2022-08-14T06:50:06.790Z,40.86
2022-08-14T06:51:04.286Z,40.49
2022-08-14T06:52:02.116Z,41.03
2022-08-14T06:55:12.570Z,40.80
2022-08-14T06:56:03.939Z,41.04
2022-08-14T06:56:57.087Z,41.07
2022-08-14T06:59:22.213Z,41.13
2022-08-14T07:00:15.191Z,40.79
2022-08-14T07:01:27.572Z,41.06
2022-08-14T07:02:22.903Z,41.04
2022-08-14T07:04:24.605Z,40.77
2022-08-14T07:05:10.717Z,41.03
2022-08-14T07:06:11.661Z,41.14
2022-08-14T07:07:09.309Z,41.19
2022-08-14T07:08:02.116Z,41.14
2022-08-14T07:08:55.893Z,41.30
2022-08-14T07:09:51.037Z,40.89
2022-08-14T07:10:45.011Z,41.22
2022-08-14T07:11:43.529Z,41.14
2022-08-14T07:13:00.974Z,41.08
2022-08-14T07:13:54.971Z,41.04
2022-08-14T07:14:49.961Z,40.80
2022-08-14T07:15:45.288Z,41.19
2022-08-14T07:16:46.113Z,41.47
2022-08-14T07:17:52.207Z,41.12
2022-08-14T07:22:20.449Z,41.21
2022-08-14T07:23:23.137Z,41.60
2022-08-14T07:25:21.624Z,41.44
2022-08-14T07:26:23.669Z,41.59
2022-08-14T07:27:13.749Z,41.43
2022-08-14T07:28:03.414Z,41.22
2022-08-14T07:28:50.453Z,41.32
2022-08-14T07:29:39.407Z,41.31
2022-08-14T07:30:34.566Z,41.66
2022-08-14T07:31:26.242Z,41.40
2022-08-14T07:32:22.169Z,41.63
2022-08-14T07:33:28.883Z,41.48
2022-08-14T07:36:32.358Z,41.87
2022-08-14T07:37:29.260Z,41.52
2022-08-14T07:38:24.908Z,41.71
2022-08-14T07:39:18.116Z,41.35
2022-08-14T07:45:47.204Z,41.76
2022-08-14T07:46:39.507Z,41.98
2022-08-14T07:47:51.018Z,42.10
2022-08-14T07:48:39.727Z,42.00
2022-08-14T07:49:29.021Z,42.23
2022-08-14T07:50:24.115Z,41.97
2022-08-14T07:51:10.706Z,41.70
2022-08-14T07:52:00.166Z,42.04
2022-08-14T07:52:52.550Z,41.80
2022-08-14T07:53:48.909Z,41.25
2022-08-14T07:56:56.244Z,42.44
2022-08-14T08:05:53.125Z,42.02
2022-08-14T08:06:40.343Z,41.70
2022-08-14T08:07:34.694Z,42.37
2022-08-14T08:08:27.259Z,42.43
2022-08-14T08:10:46.234Z,42.52
2022-08-14T08:11:25.148Z,42.29
2022-08-14T08:12:21.232Z,42.06
2022-08-14T08:15:52.224Z,42.17
2022-08-14T08:16:37.663Z,43.06
2022-08-14T08:17:25.084Z,43.07
2022-08-14T08:20:12.605Z,42.53
2022-08-14T08:21:00.173Z,43.31
2022-08-14T08:21:45.654Z,42.86
2022-08-14T08:22:43.349Z,43.24
2022-08-14T08:23:40.582Z,43.57
2022-08-14T08:24:34.382Z,43.45
2022-08-14T08:25:25.439Z,42.87
2022-08-14T08:26:17.573Z,42.95
2022-08-14T08:27:06.328Z,43.08
2022-08-14T08:28:19.814Z,43.24
2022-08-14T08:29:33.218Z,42.39
2022-08-14T08:31:32.724Z,43.36
2022-08-14T08:32:20.783Z,43.45
2022-08-14T08:33:20.770Z,42.99
2022-08-14T08:34:18.351Z,43.02
2022-08-14T08:35:10.099Z,42.64
2022-08-14T08:36:05.296Z,42.56
2022-08-14T08:37:06.606Z,43.13
2022-08-14T08:38:01.362Z,42.95
2022-08-14T08:39:18.096Z,43.03
2022-08-14T08:42:04.238Z,43.00
2022-08-14T08:43:04.152Z,42.81
2022-08-14T08:45:11.837Z,42.86
2022-08-14T08:46:05.106Z,43.13
2022-08-14T08:46:52.565Z,42.99
2022-08-14T08:47:48.476Z,43.21
2022-08-14T08:48:53.917Z,43.58
2022-08-14T08:50:54.839Z,44.04
2022-08-14T08:51:42.862Z,44.21
2022-08-14T08:52:31.680Z,43.85
2022-08-14T08:53:26.599Z,43.72
2022-08-14T08:54:20.156Z,44.13
2022-08-14T08:55:20.912Z,43.67
2022-08-14T08:56:30.143Z,42.97
2022-08-14T08:57:34.311Z,43.68
2022-08-14T08:59:42.185Z,42.99
2022-08-14T09:00:31.208Z,43.65
2022-08-14T09:01:18.251Z,43.28
2022-08-14T09:02:06.636Z,43.24
2022-08-14T09:03:06.749Z,42.82
2022-08-14T09:04:01.708Z,42.81
2022-08-14T09:04:53.493Z,43.17
2022-08-14T09:05:39.874Z,43.12
2022-08-14T09:07:01.281Z,42.95
2022-08-14T09:10:03.637Z,42.93
2022-08-14T09:14:18.860Z,43.49
2022-08-14T09:15:11.447Z,43.80
2022-08-14T09:16:18.500Z,43.14
2022-08-14T09:17:05.735Z,42.52
2022-08-14T09:17:59.220Z,42.84
2022-08-14T09:22:35.173Z,42.34
2022-08-14T09:24:26.753Z,42.83
2022-08-14T09:26:00.236Z,42.39
2022-08-14T09:26:51.856Z,42.46
2022-08-14T09:27:40.722Z,42.59
2022-08-14T09:28:30.593Z,42.85
2022-08-14T09:29:29.406Z,43.36
2022-08-14T09:30:33.576Z,43.35
2022-08-14T09:31:43.041Z,43.68
2022-08-14T09:32:58.883Z,43.64
2022-08-14T09:33:56.660Z,43.44
2022-08-14T09:35:04.531Z,42.90
2022-08-14T09:36:14.475Z,43.08
2022-08-14T09:37:02.674Z,43.48
2022-08-14T09:37:55.173Z,43.01
2022-08-14T09:38:45.300Z,43.25
2022-08-14T09:39:48.395Z,43.79
2022-08-14T09:42:20.610Z,42.81
2022-08-14T09:46:28.282Z,43.07
2022-08-14T09:47:15.947Z,43.08
2022-08-14T09:48:05.489Z,42.55
2022-08-14T09:48:52.325Z,42.95
2022-08-14T09:49:53.302Z,43.02
2022-08-14T09:50:45.623Z,42.91
2022-08-14T09:51:44.690Z,43.79
2022-08-14T09:52:48.793Z,43.55
2022-08-14T09:56:13.381Z,43.77
2022-08-14T09:57:20.505Z,43.72
2022-08-14T10:00:52.843Z,43.28
2022-08-14T10:01:52.601Z,43.59
2022-08-14T10:02:46.133Z,43.72
2022-08-14T10:03:49.660Z,43.33
2022-08-14T10:07:09.510Z,43.19
2022-08-14T10:10:23.371Z,43.43
2022-08-14T10:12:29.560Z,42.64
2022-08-14T10:13:27.232Z,42.82
2022-08-14T10:16:25.691Z,42.81
2022-08-14T10:17:21.543Z,42.87
2022-08-14T10:18:18.379Z,42.82
2022-08-14T10:20:41.074Z,42.80
2022-08-14T10:21:45.741Z,42.74
2022-08-14T10:23:14.896Z,42.77
2022-08-14T10:23:59.355Z,42.46
2022-08-14T10:24:54.496Z,42.47
2022-08-14T10:25:56.087Z,42.70
2022-08-14T10:26:57.509Z,43.00
2022-08-14T10:29:18.513Z,42.46
2022-08-14T10:30:26.225Z,42.52
2022-08-14T10:32:29.215Z,42.82
2022-08-14T10:33:42.767Z,42.29
2022-08-14T10:34:52.738Z,42.26
2022-08-14T10:35:54.520Z,42.20
2022-08-14T10:36:48.056Z,42.15
2022-08-14T10:38:38.966Z,42.08
2022-08-14T10:39:29.379Z,42.20
2022-08-14T10:41:14.417Z,42.05
2022-08-14T10:41:55.387Z,42.21
2022-08-14T10:42:38.349Z,42.69
2022-08-14T10:43:24.961Z,42.40
2022-08-14T10:44:21.246Z,42.15
2022-08-14T10:45:05.908Z,42.38
2022-08-14T10:46:03.925Z,42.10
2022-08-14T10:47:40.564Z,42.09
2022-08-14T10:48:09.527Z,42.43
2022-08-14T10:49:02.387Z,42.10
2022-08-14T10:49:39.860Z,42.11
2022-08-14T10:50:18.800Z,42.04
2022-08-14T10:50:57.241Z,42.41
2022-08-14T10:51:39.560Z,42.07
2022-08-14T10:52:28.467Z,42.26
2022-08-14T10:53:15.287Z,41.89
2022-08-14T10:53:57.451Z,42.23
2022-08-14T10:54:40.073Z,42.41
2022-08-14T10:55:25.415Z,42.20
2022-08-14T10:56:21.890Z,42.03
2022-08-14T10:57:20.435Z,41.95
2022-08-14T10:57:56.942Z,41.78
2022-08-14T10:58:34.498Z,42.15
2022-08-14T10:59:11.553Z,41.89
2022-08-14T10:59:48.756Z,41.63
2022-08-14T11:00:30.345Z,41.93
2022-08-14T11:01:17.185Z,42.21
2022-08-14T11:02:03.523Z,42.48
2022-08-14T11:02:50.198Z,42.29
2022-08-14T11:03:55.884Z,41.75
2022-08-14T11:04:39.282Z,42.13
2022-08-14T11:05:17.716Z,42.17
2022-08-14T11:05:56.306Z,41.89
2022-08-14T11:06:33.041Z,42.28
2022-08-14T11:07:19.283Z,42.02
2022-08-14T11:07:56.343Z,42.21
2022-08-14T11:08:33.299Z,41.96
2022-08-14T11:09:16.861Z,41.82
2022-08-14T11:09:59.281Z,41.77
2022-08-14T11:10:43.226Z,41.85
2022-08-14T11:11:23.272Z,41.81
2022-08-14T11:12:44.092Z,41.79
2022-08-14T11:12:58.911Z,42.10
2022-08-14T11:13:36.285Z,41.80
2022-08-14T11:14:12.734Z,41.86
2022-08-14T11:14:58.513Z,42.04
2022-08-14T11:15:41.035Z,42.15
2022-08-14T11:16:24.886Z,42.18
2022-08-14T11:17:06.883Z,42.40
2022-08-14T11:17:51.051Z,42.27
2022-08-14T11:18:39.887Z,41.69
2022-08-14T11:19:19.123Z,41.56
2022-08-14T11:20:03.084Z,41.72
2022-08-14T11:20:41.496Z,41.45
2022-08-14T11:21:21.380Z,42.00
2022-08-14T11:21:58.409Z,41.42
2022-08-14T11:22:52.460Z,41.68
2022-08-14T11:23:37.735Z,41.73
2022-08-14T11:24:50.712Z,41.61
2022-08-14T11:25:12.438Z,41.60
2022-08-14T11:25:54.512Z,42.08
2022-08-14T11:26:36.520Z,42.23
2022-08-14T11:27:13.476Z,41.86
2022-08-14T11:27:51.170Z,42.21
2022-08-14T11:28:47.522Z,42.18
2022-08-14T11:29:26.824Z,41.64
2022-08-14T11:30:51.516Z,41.56
2022-08-14T11:31:04.429Z,41.84
2022-08-14T11:31:44.132Z,42.13
2022-08-14T11:32:23.561Z,41.73
2022-08-14T11:33:04.316Z,41.78
2022-08-14T11:33:44.771Z,41.41
2022-08-14T11:34:32.168Z,41.62
2022-08-14T11:35:16.757Z,41.90
2022-08-14T11:36:04.354Z,41.84
2022-08-14T11:37:09.756Z,41.41
2022-08-14T11:37:55.444Z,41.39
2022-08-14T11:38:31.835Z,41.90
2022-08-14T11:39:10.797Z,41.72
2022-08-14T11:39:47.791Z,41.44
2022-08-14T11:40:29.377Z,41.29
2022-08-14T11:41:07.557Z,41.81
2022-08-14T11:41:46.620Z,41.60
2022-08-14T11:42:58.351Z,41.76
2022-08-14T11:43:30.656Z,41.45
2022-08-14T11:44:17.462Z,41.52
2022-08-14T11:44:56.623Z,41.46
2022-08-14T11:45:37.099Z,41.60
2022-08-14T11:46:17.695Z,41.74
2022-08-14T11:47:09.931Z,41.89
2022-08-14T11:48:12.860Z,41.82
2022-08-14T11:49:03.784Z,41.91
2022-08-14T11:49:51.934Z,41.57
2022-08-14T11:50:37.929Z,41.51
2022-08-14T11:51:30.485Z,41.42
2022-08-14T11:52:07.636Z,41.86
2022-08-14T11:52:46.168Z,41.76
2022-08-14T11:53:27.065Z,41.72
2022-08-14T11:54:10.208Z,41.33
2022-08-14T11:54:48.048Z,41.44
2022-08-14T11:55:25.689Z,41.54
2022-08-14T11:56:05.581Z,41.44
2022-08-14T11:56:42.575Z,41.44
2022-08-14T11:57:19.723Z,41.39
2022-08-14T11:58:08.751Z,41.38
2022-08-14T11:58:46.811Z,41.48
2022-08-14T11:59:33.252Z,41.60
2022-08-14T12:00:14.877Z,41.90
2022-08-14T12:00:56.278Z,41.50
2022-08-14T12:01:38.050Z,41.74
2022-08-14T12:03:01.703Z,41.33
2022-08-14T12:03:19.960Z,41.70
2022-08-14T12:04:32.360Z,41.59
2022-08-14T12:05:14.140Z,41.19
2022-08-14T12:05:59.157Z,41.50
2022-08-14T12:06:49.174Z,41.07
2022-08-14T12:07:28.824Z,41.44
2022-08-14T12:08:11.173Z,41.23
2022-08-14T12:08:52.787Z,41.64
2022-08-14T12:09:35.154Z,41.45
2022-08-14T12:10:27.167Z,41.06
2022-08-14T12:11:08.997Z,41.16
2022-08-14T12:11:51.523Z,41.18
2022-08-14T12:12:35.630Z,41.08
2022-08-14T12:13:27.398Z,41.39
2022-08-14T12:14:30.229Z,41.16
2022-08-14T12:15:11.155Z,41.16
2022-08-14T12:15:51.597Z,41.60
2022-08-14T12:16:32.701Z,40.94
2022-08-14T12:17:13.382Z,41.53
2022-08-14T12:17:53.150Z,41.52
2022-08-14T12:18:33.864Z,41.48
2022-08-14T12:19:17.205Z,41.41
2022-08-14T12:19:58.907Z,41.09
2022-08-14T12:20:45.557Z,40.96
2022-08-14T12:21:20.638Z,41.38
2022-08-14T12:21:59.452Z,41.23
2022-08-14T12:22:39.979Z,40.93
2022-08-14T12:23:24.918Z,41.25
2022-08-14T12:24:35.861Z,41.35
2022-08-14T12:25:15.002Z,40.97
2022-08-14T12:26:32.205Z,41.04
2022-08-14T12:27:25.534Z,41.04
2022-08-14T12:28:26.962Z,41.47
2022-08-14T12:29:23.382Z,40.84
2022-08-14T12:30:11.864Z,40.90
2022-08-14T12:30:59.100Z,41.17
2022-08-14T12:31:44.524Z,40.90
2022-08-14T12:33:31.287Z,40.86
2022-08-14T12:34:24.113Z,40.77
2022-08-14T12:35:13.876Z,41.15
2022-08-14T12:36:18.332Z,40.92
2022-08-14T12:38:25.568Z,41.24
2022-08-14T12:39:27.909Z,40.85
2022-08-14T12:40:38.780Z,40.77
2022-08-14T12:41:34.273Z,41.16
2022-08-14T12:42:34.723Z,41.20
2022-08-14T12:43:31.133Z,40.71
2022-08-14T12:44:29.976Z,41.06
2022-08-14T12:45:17.646Z,41.12
2022-08-14T12:46:11.662Z,40.92
2022-08-14T12:47:10.318Z,40.90
2022-08-14T12:48:20.598Z,40.78
2022-08-14T12:49:11.226Z,40.86
2022-08-14T12:50:03.670Z,41.16
2022-08-14T12:50:49.700Z,40.74
2022-08-14T12:51:33.707Z,41.15
2022-08-14T12:52:36.112Z,40.82
2022-08-14T12:53:38.437Z,40.70
2022-08-14T12:54:54.725Z,41.24
2022-08-14T12:56:17.648Z,41.18
2022-08-14T12:56:49.165Z,40.76
2022-08-14T12:57:42.965Z,41.03
2022-08-14T12:58:51.643Z,40.72
2022-08-14T12:59:37.024Z,40.86
2022-08-14T13:01:59.861Z,40.57
2022-08-14T14:33:23.086Z,40.21
2022-08-14T14:34:07.732Z,39.75
2022-08-14T14:34:44.290Z,40.06
2022-08-14T14:35:16.640Z,40.09
2022-08-14T14:35:48.146Z,40.01
2022-08-14T14:36:21.623Z,39.68
2022-08-14T14:36:55.583Z,39.66
2022-08-14T14:37:27.030Z,40.14
2022-08-14T14:37:58.837Z,39.58
2022-08-14T14:38:34.800Z,39.74
2022-08-14T14:39:06.404Z,39.81
2022-08-14T14:40:50.461Z,39.96
2022-08-14T14:40:54.291Z,40.13
2022-08-14T14:41:21.041Z,39.98
2022-08-14T14:41:56.164Z,40.07
2022-08-14T14:42:32.282Z,39.86
2022-08-14T14:43:03.920Z,39.90
2022-08-14T14:43:36.998Z,39.65
2022-08-14T14:44:10.423Z,39.83
2022-08-14T14:44:45.004Z,39.62
2022-08-14T14:45:19.446Z,39.52
2022-08-14T14:45:50.742Z,39.60
2022-08-14T14:46:36.083Z,39.62
2022-08-14T14:47:09.073Z,40.00
2022-08-14T14:47:42.643Z,40.07
2022-08-14T14:48:14.219Z,39.53
2022-08-14T14:48:54.576Z,39.62
2022-08-14T14:49:42.139Z,39.58
2022-08-14T14:50:18.345Z,39.68
2022-08-14T14:50:50.241Z,39.45
2022-08-14T14:51:21.547Z,39.49
2022-08-14T14:51:52.866Z,39.93
2022-08-14T14:52:27.741Z,39.74
2022-08-14T14:53:12.226Z,39.79
2022-08-14T14:53:44.997Z,39.90
2022-08-14T14:54:17.242Z,39.70
2022-08-14T14:54:49.100Z,39.87
2022-08-14T14:55:20.984Z,39.85
2022-08-14T14:56:47.804Z,39.49
2022-08-14T14:56:47.856Z,39.64
2022-08-14T14:57:25.728Z,39.37
2022-08-14T14:58:01.835Z,39.68
2022-08-14T14:58:38.808Z,39.37
2022-08-14T14:59:13.041Z,39.72
2022-08-14T14:59:44.342Z,39.42
2022-08-14T15:00:19.814Z,39.71
2022-08-14T15:00:53.429Z,39.31
2022-08-14T15:01:26.321Z,39.78
2022-08-14T15:02:00.149Z,39.81
2022-08-14T15:02:36.648Z,39.85
2022-08-14T15:03:08.323Z,39.72
2022-08-14T15:03:40.636Z,39.47
2022-08-14T15:04:20.335Z,39.34
2022-08-14T15:04:52.346Z,39.76
2022-08-14T15:05:23.655Z,39.66
2022-08-14T15:05:59.556Z,39.80
2022-08-14T15:06:33.495Z,39.48
2022-08-14T15:07:05.299Z,39.74
2022-08-14T15:07:37.150Z,39.37
2022-08-14T15:08:08.481Z,39.74
2022-08-14T15:08:56.744Z,39.36
2022-08-14T15:09:30.888Z,39.26
2022-08-14T15:10:02.639Z,39.46
2022-08-14T15:10:38.231Z,39.35
2022-08-14T15:11:13.633Z,39.32
2022-08-14T15:11:45.573Z,39.81
2022-08-14T15:12:55.238Z,39.64
2022-08-14T15:13:08.440Z,39.27
2022-08-14T15:13:43.351Z,39.74
2022-08-14T15:14:54.859Z,39.29
2022-08-14T15:15:16.207Z,39.75
2022-08-14T15:15:47.692Z,39.36
2022-08-14T15:16:24.865Z,39.81
2022-08-14T15:16:59.192Z,39.73
2022-08-14T15:17:35.103Z,39.72
2022-08-14T15:18:09.995Z,39.69
2022-08-14T15:18:58.252Z,39.41
2022-08-14T15:19:29.589Z,39.56
2022-08-14T15:20:03.224Z,39.22
2022-08-14T15:20:34.526Z,39.64
2022-08-14T15:21:05.938Z,39.37
2022-08-14T15:21:37.595Z,39.18
2022-08-14T15:22:10.584Z,39.20
2022-08-14T15:22:43.555Z,39.54
2022-08-14T15:23:22.898Z,39.42
2022-08-14T15:23:54.251Z,39.52
2022-08-14T15:24:26.883Z,39.58
2022-08-14T15:24:58.485Z,39.63
2022-08-14T15:25:29.821Z,39.55
2022-08-14T15:26:01.122Z,39.14
2022-08-14T15:26:32.670Z,39.13
2022-08-14T15:27:05.042Z,39.15
2022-08-14T15:27:37.629Z,39.16
2022-08-14T15:28:21.495Z,39.60
2022-08-14T15:29:02.811Z,39.58
2022-08-14T15:29:36.993Z,39.14
2022-08-14T15:30:08.815Z,39.15
2022-08-14T15:30:40.568Z,39.21
2022-08-14T15:31:11.909Z,39.08
2022-08-14T15:31:43.189Z,39.19
2022-08-14T15:32:14.469Z,39.45
2022-08-14T15:32:48.288Z,39.20
2022-08-14T15:33:19.596Z,39.10
2022-08-14T15:34:13.465Z,39.53
2022-08-14T15:34:51.146Z,39.08
2022-08-14T15:35:25.602Z,39.05
2022-08-14T15:36:01.578Z,38.96
2022-08-14T15:36:32.944Z,39.20
2022-08-14T15:37:04.872Z,39.30
2022-08-14T15:37:36.186Z,38.96
2022-08-14T15:38:13.850Z,39.10
2022-08-14T15:38:49.223Z,39.19
2022-08-14T15:39:20.575Z,39.47
2022-08-14T15:39:53.049Z,38.96
2022-08-14T15:40:24.542Z,39.43
2022-08-14T15:40:56.321Z,39.13
2022-08-14T15:41:33.719Z,39.13
2022-08-14T15:42:15.566Z,38.97
2022-08-14T15:42:48.786Z,39.38
2022-08-14T15:43:20.291Z,38.99
2022-08-14T15:43:54.223Z,39.11
2022-08-14T15:44:31.350Z,39.16
2022-08-14T15:45:07.280Z,38.83
2022-08-14T15:45:38.608Z,38.99
2022-08-14T15:46:10.058Z,39.27
2022-08-14T15:47:01.352Z,39.21
2022-08-14T15:47:33.255Z,39.17
2022-08-14T15:48:14.001Z,39.18
2022-08-14T15:48:55.768Z,38.75
2022-08-14T15:49:28.601Z,39.18
2022-08-14T15:50:07.509Z,38.80
2022-08-14T15:50:38.900Z,38.56
2022-08-14T15:51:10.181Z,39.03
2022-08-14T15:51:42.105Z,38.66
2022-08-14T15:52:14.799Z,39.05
2022-08-14T15:53:03.510Z,39.00
2022-08-14T15:53:35.433Z,38.69
2022-08-14T15:54:07.349Z,38.65
2022-08-14T15:54:42.803Z,38.69
2022-08-14T15:55:14.539Z,39.08
2022-08-14T15:55:46.265Z,39.05
2022-08-14T15:56:32.782Z,38.59
2022-08-14T15:57:09.229Z,39.03
2022-08-14T15:58:02.144Z,39.05
2022-08-14T15:58:32.194Z,39.09
2022-08-14T15:59:04.074Z,38.91
2022-08-14T15:59:35.775Z,38.57
2022-08-14T16:00:11.571Z,38.82
2022-08-14T16:00:59.388Z,38.55
2022-08-14T16:01:52.833Z,38.46
2022-08-14T16:02:24.409Z,38.60
2022-08-14T16:02:56.027Z,38.86
2022-08-14T16:03:35.281Z,38.85
2022-08-14T16:04:08.599Z,38.59
2022-08-14T16:04:50.623Z,38.86
2022-08-14T16:05:25.414Z,38.72
2022-08-14T16:05:57.046Z,38.94
2022-08-14T16:06:28.370Z,38.62
2022-08-14T16:06:59.830Z,38.96
2022-08-14T16:07:31.112Z,38.46
2022-08-14T16:08:02.399Z,38.56
2022-08-14T16:08:35.149Z,38.94
2022-08-14T16:09:11.072Z,38.54
2022-08-14T16:09:42.936Z,38.84
2022-08-14T16:10:29.201Z,38.93
2022-08-14T16:11:02.562Z,38.45
2022-08-14T16:11:33.878Z,38.43
2022-08-14T16:12:08.481Z,38.40
2022-08-14T16:12:54.535Z,38.47
2022-08-14T16:13:41.742Z,38.61
2022-08-14T16:14:13.995Z,38.90
2022-08-14T16:14:52.650Z,38.52
2022-08-14T16:15:24.212Z,38.92
2022-08-14T16:15:55.549Z,38.66
2022-08-14T16:16:34.473Z,38.36
2022-08-14T16:17:18.364Z,38.73
2022-08-14T16:17:49.638Z,38.73
2022-08-14T16:18:21.686Z,38.30
2022-08-14T16:18:53.314Z,38.28
2022-08-14T16:19:24.653Z,38.65
2022-08-14T16:19:56.870Z,38.67
2022-08-14T16:20:42.262Z,38.77
2022-08-14T16:21:16.691Z,38.35
2022-08-14T16:22:02.030Z,38.37
2022-08-14T16:23:10.444Z,38.66
2022-08-14T16:23:36.215Z,38.66
2022-08-14T16:24:07.743Z,38.28
2022-08-14T16:25:01.967Z,38.80
2022-08-14T16:25:36.106Z,38.65
2022-08-14T16:26:07.516Z,38.40
2022-08-14T16:26:51.793Z,38.25
2022-08-14T16:27:37.051Z,38.77
2022-08-14T16:28:27.120Z,38.64
2022-08-14T16:29:02.842Z,38.27
2022-08-14T16:29:34.857Z,38.62
2022-08-14T16:30:06.848Z,38.25
2022-08-14T16:30:42.182Z,38.68
2022-08-14T16:31:13.492Z,38.43
2022-08-14T16:31:44.840Z,38.39
2022-08-14T16:32:32.614Z,38.43
2022-08-14T16:33:06.886Z,38.56
2022-08-14T16:33:58.947Z,38.39
2022-08-14T16:34:45.964Z,38.20
2022-08-14T16:35:19.868Z,38.76
2022-08-14T16:35:55.718Z,38.33
2022-08-14T16:36:31.690Z,38.71
2022-08-14T16:37:03.112Z,38.61
2022-08-14T16:37:36.285Z,38.59
2022-08-14T16:38:15.128Z,38.43
2022-08-14T16:39:00.134Z,38.42
2022-08-14T16:39:31.555Z,38.11
2022-08-14T16:40:04.437Z,38.51
2022-08-14T16:40:37.945Z,38.52
2022-08-14T16:41:14.858Z,38.45
2022-08-14T16:41:52.362Z,38.19
2022-08-14T16:42:39.074Z,38.48
2022-08-14T16:43:16.544Z,38.58
2022-08-14T16:43:48.030Z,38.48
2022-08-14T16:44:23.197Z,38.07
2022-08-14T16:45:04.299Z,38.49
2022-08-14T16:45:43.584Z,38.13
2022-08-14T16:46:17.334Z,38.14
2022-08-14T16:46:57.166Z,37.93
2022-08-14T16:47:34.923Z,38.49
2022-08-14T16:48:06.854Z,38.12
2022-08-14T16:48:58.805Z,38.13
2022-08-14T16:50:02.489Z,38.39
2022-08-14T16:50:40.482Z,38.45
2022-08-14T16:51:13.017Z,38.48
2022-08-14T16:51:46.595Z,38.36
2022-08-14T16:52:25.780Z,38.08
2022-08-14T16:53:17.261Z,38.59
2022-08-14T16:53:49.286Z,38.40
2022-08-14T16:54:35.024Z,38.09
2022-08-14T16:55:12.045Z,38.36
2022-08-14T16:55:45.336Z,38.18
2022-08-14T16:56:28.036Z,38.05
2022-08-14T16:57:12.309Z,38.42
2022-08-14T16:57:51.129Z,38.20
2022-08-14T16:58:29.851Z,38.58
2022-08-14T16:59:08.196Z,38.44
2022-08-14T16:59:52.366Z,38.46
2022-08-14T17:00:43.146Z,38.52
2022-08-14T17:01:24.467Z,38.44
2022-08-14T17:01:57.514Z,38.52
2022-08-14T17:02:36.213Z,38.01
2022-08-14T17:03:08.658Z,38.04
2022-08-14T17:04:09.406Z,38.42
2022-08-14T17:04:49.197Z,38.48
2022-08-14T17:05:24.519Z,38.41
2022-08-14T17:05:55.860Z,38.26
2022-08-14T17:06:35.008Z,38.45
2022-08-14T17:07:11.466Z,38.40
2022-08-14T17:08:03.194Z,38.43
2022-08-14T17:08:54.524Z,37.94
2022-08-14T17:09:36.192Z,38.04
2022-08-14T17:10:09.388Z,37.90
2022-08-14T17:10:43.952Z,37.95
2022-08-14T17:11:15.249Z,37.92
2022-08-14T17:11:51.988Z,37.87
2022-08-14T17:12:33.514Z,38.25
2022-08-14T17:13:19.240Z,37.79
2022-08-14T17:14:00.659Z,38.03
2022-08-14T17:14:51.430Z,38.07
2022-08-14T17:15:23.509Z,38.02
2022-08-14T17:16:03.829Z,37.76
2022-08-14T17:16:37.090Z,37.10
2022-08-14T17:17:09.236Z,37.05
2022-08-14T17:17:43.531Z,37.00
2022-08-14T17:18:22.517Z,37.20
2022-08-14T17:19:02.771Z,37.56
2022-08-14T17:19:36.771Z,37.40
2022-08-14T17:20:39.280Z,37.08
2022-08-14T17:21:18.448Z,37.55
2022-08-14T17:21:51.219Z,37.38
2022-08-14T17:22:23.120Z,37.71
2022-08-14T17:22:58.855Z,37.12
2022-08-14T17:23:31.383Z,37.36
2022-08-14T17:24:51.400Z,37.25